Huvudsida
METAR-TAF:

METAR-TAF

Flygplatser :

Härjedalen Sveg Airport

Sveg, Sverige

latitud: 62-02-52N, longitud: 014-25-22E, höjd: 359 m

Aktuellt väderrapport

Denna rapport gjordes för 38 minuter sedan, klockan 07:20 UTC
Vind 3 kt varierande vindriktning
Temperatur 5°C
Fuktighet 75%
Tryck 975 hPa
Sikt 10 km eller mer

METAR: ESND 220720Z AUTO VRB03KT 9999 BKN032/// 05/01 Q0975

Tid: 08:58 (07:58 UTC)


TAF: saknas

Aktuella väderrapporter och prognoser från 4000 flygplatser (METAR- och TAF-rapporter).

De tillgängliga stationerna syns som gula och röda prickar på kartan.

För musen över prickarna för att se namnen på stationerna.

Klicka sedan för att få väderrapporter och prognoser.

För att ändra kartan: Klicka på de gröna knapparna med ett svart kors på för att zooma in; den gröna knappen med ett streck på för att zooma ut; eller på de gröna pilarna för angränsande kartor.


METAR-TAF: